sensor_id;sensor_type;location;lat;lon;timestamp;pressure;altitude;pressure_sealevel;temperature;humidity
60817;BME280;51921;51.518;-3.188;2022-11-20T00:02:05;100583.78;;;8.25;87.57
60817;BME280;51921;51.518;-3.188;2022-11-20T00:04:31;100585.31;;;8.37;86.49
60817;BME280;51921;51.518;-3.188;2022-11-20T00:06:56;100582.28;;;8.13;88.24
60817;BME280;51921;51.518;-3.188;2022-11-20T00:09:22;100577.14;;;7.53;87.63
60817;BME280;51921;51.518;-3.188;2022-11-20T00:11:47;100575.94;;;6.81;96.43
60817;BME280;51921;51.518;-3.188;2022-11-20T00:14:13;100574.94;;;7.14;93.67
60817;BME280;51921;51.518;-3.188;2022-11-20T00:16:38;100571.07;;;7.17;96.59
60817;BME280;51921;51.518;-3.188;2022-11-20T00:19:04;100564.17;;;7.11;94.71
60817;BME280;51921;51.518;-3.188;2022-11-20T00:21:30;100562.28;;;5.31;100.00
60817;BME280;51921;51.518;-3.188;2022-11-20T00:23:57;100563.44;;;6.24;100.00
60817;BME280;51921;51.518;-3.188;2022-11-20T00:26:21;100560.15;;;7.06;100.00
60817;BME280;51921;51.518;-3.188;2022-11-20T00:28:50;100553.93;;;7.71;96.80
60817;BME280;51921;51.518;-3.188;2022-11-20T00:31:13;100550.69;;;7.21;97.91
60817;BME280;51921;51.518;-3.188;2022-11-20T00:33:37;100544.87;;;7.77;98.60
60817;BME280;51921;51.518;-3.188;2022-11-20T00:36:04;100538.27;;;6.90;100.00
60817;BME280;51921;51.518;-3.188;2022-11-20T00:38:28;100534.92;;;7.29;99.57
60817;BME280;51921;51.518;-3.188;2022-11-20T00:40:56;100527.34;;;7.26;100.00
60817;BME280;51921;51.518;-3.188;2022-11-20T00:43:19;100526.48;;;6.59;100.00
60817;BME280;51921;51.518;-3.188;2022-11-20T00:45:45;100518.46;;;7.03;100.00
60817;BME280;51921;51.518;-3.188;2022-11-20T00:48:10;100515.02;;;7.52;97.65
60817;BME280;51921;51.518;-3.188;2022-11-20T00:50:36;100511.18;;;7.92;97.98
60817;BME280;51921;51.518;-3.188;2022-11-20T00:53:01;100505.17;;;7.16;100.00
60817;BME280;51921;51.518;-3.188;2022-11-20T00:55:27;100501.56;;;7.14;100.00
60817;BME280;51921;51.518;-3.188;2022-11-20T00:57:53;100500.74;;;7.22;100.00
60817;BME280;51921;51.518;-3.188;2022-11-20T01:00:18;100497.64;;;5.96;100.00
60817;BME280;51921;51.518;-3.188;2022-11-20T01:02:44;100493.78;;;6.14;100.00
60817;BME280;51921;51.518;-3.188;2022-11-20T01:05:09;100489.26;;;6.41;100.00
60817;BME280;51921;51.518;-3.188;2022-11-20T01:07:35;100487.49;;;5.85;100.00
60817;BME280;51921;51.518;-3.188;2022-11-20T01:10:00;100481.62;;;6.80;100.00
60817;BME280;51921;51.518;-3.188;2022-11-20T01:12:26;100477.77;;;7.61;100.00
60817;BME280;51921;51.518;-3.188;2022-11-20T01:14:51;100472.61;;;7.04;100.00
60817;BME280;51921;51.518;-3.188;2022-11-20T01:17:17;100477.15;;;7.88;100.00
60817;BME280;51921;51.518;-3.188;2022-11-20T01:19:42;100479.23;;;7.77;98.93
60817;BME280;51921;51.518;-3.188;2022-11-20T01:22:08;100476.18;;;7.92;99.81
60817;BME280;51921;51.518;-3.188;2022-11-20T01:24:33;100469.32;;;8.84;96.19
60817;BME280;51921;51.518;-3.188;2022-11-20T01:26:59;100465.71;;;8.31;97.61
60817;BME280;51921;51.518;-3.188;2022-11-20T01:29:25;100462.35;;;8.36;96.14
60817;BME280;51921;51.518;-3.188;2022-11-20T01:31:50;100457.30;;;6.39;100.00
60817;BME280;51921;51.518;-3.188;2022-11-20T01:34:17;100456.63;;;7.08;100.00
60817;BME280;51921;51.518;-3.188;2022-11-20T01:36:41;100453.09;;;8.01;100.00
60817;BME280;51921;51.518;-3.188;2022-11-20T01:39:10;100455.22;;;7.40;100.00
60817;BME280;51921;51.518;-3.188;2022-11-20T01:41:33;100447.59;;;7.50;100.00
60817;BME280;51921;51.518;-3.188;2022-11-20T01:43:58;100443.13;;;7.75;100.00
60817;BME280;51921;51.518;-3.188;2022-11-20T01:46:23;100443.17;;;7.26;100.00
60817;BME280;51921;51.518;-3.188;2022-11-20T01:48:54;100443.29;;;7.90;100.00
60817;BME280;51921;51.518;-3.188;2022-11-20T01:51:19;100444.73;;;7.57;100.00
60817;BME280;51921;51.518;-3.188;2022-11-20T01:53:39;100442.45;;;7.53;100.00
60817;BME280;51921;51.518;-3.188;2022-11-20T01:56:08;100439.24;;;7.08;100.00
60817;BME280;51921;51.518;-3.188;2022-11-20T01:58:35;100439.03;;;7.38;100.00
60817;BME280;51921;51.518;-3.188;2022-11-20T02:00:56;100433.10;;;7.35;100.00
60817;BME280;51921;51.518;-3.188;2022-11-20T02:03:21;100424.62;;;7.89;100.00
60817;BME280;51921;51.518;-3.188;2022-11-20T02:05:51;100419.87;;;7.41;100.00
60817;BME280;51921;51.518;-3.188;2022-11-20T02:08:13;100419.09;;;7.15;100.00
60817;BME280;51921;51.518;-3.188;2022-11-20T02:10:38;100416.05;;;7.81;100.00
60817;BME280;51921;51.518;-3.188;2022-11-20T02:13:04;100417.39;;;7.65;100.00
60817;BME280;51921;51.518;-3.188;2022-11-20T02:15:29;100419.60;;;7.44;100.00
60817;BME280;51921;51.518;-3.188;2022-11-20T02:17:54;100425.50;;;7.78;100.00
60817;BME280;51921;51.518;-3.188;2022-11-20T02:20:20;100426.17;;;7.90;100.00
60817;BME280;51921;51.518;-3.188;2022-11-20T02:22:50;100423.50;;;7.61;100.00
60817;BME280;51921;51.518;-3.188;2022-11-20T02:25:11;100420.22;;;7.53;100.00
60817;BME280;51921;51.518;-3.188;2022-11-20T02:27:36;100416.50;;;8.53;100.00
60817;BME280;51921;51.518;-3.188;2022-11-20T02:30:05;100409.62;;;8.71;100.00
60817;BME280;51921;51.518;-3.188;2022-11-20T02:32:29;100402.72;;;8.46;98.91
60817;BME280;51921;51.518;-3.188;2022-11-20T02:34:53;100390.85;;;9.12;94.51
60817;BME280;51921;51.518;-3.188;2022-11-20T02:37:20;100388.18;;;9.00;94.27
60817;BME280;51921;51.518;-3.188;2022-11-20T02:39:44;100389.84;;;9.18;95.13
60817;BME280;51921;51.518;-3.188;2022-11-20T02:42:09;100392.64;;;7.63;100.00
60817;BME280;51921;51.518;-3.188;2022-11-20T02:44:35;100392.04;;;6.94;100.00
60817;BME280;51921;51.518;-3.188;2022-11-20T02:47:00;100388.35;;;6.28;100.00
60817;BME280;51921;51.518;-3.188;2022-11-20T02:49:26;100389.53;;;6.74;100.00
60817;BME280;51921;51.518;-3.188;2022-11-20T02:51:52;100393.32;;;6.95;100.00
60817;BME280;51921;51.518;-3.188;2022-11-20T02:54:17;100389.09;;;7.10;100.00
60817;BME280;51921;51.518;-3.188;2022-11-20T02:56:43;100387.73;;;6.28;100.00
60817;BME280;51921;51.518;-3.188;2022-11-20T02:59:09;100385.81;;;6.43;100.00
60817;BME280;51921;51.518;-3.188;2022-11-20T03:01:34;100392.14;;;6.84;100.00
60817;BME280;51921;51.518;-3.188;2022-11-20T03:03:59;100386.43;;;5.46;100.00
60817;BME280;51921;51.518;-3.188;2022-11-20T03:06:24;100386.86;;;4.90;100.00
60817;BME280;51921;51.518;-3.188;2022-11-20T03:08:50;100397.30;;;5.38;100.00
60817;BME280;51921;51.518;-3.188;2022-11-20T03:11:15;100386.41;;;8.06;100.00
60817;BME280;51921;51.518;-3.188;2022-11-20T03:13:41;100371.66;;;8.58;100.00
60817;BME280;51921;51.518;-3.188;2022-11-20T03:16:09;100370.42;;;9.52;100.00
60817;BME280;51921;51.518;-3.188;2022-11-20T03:18:32;100383.29;;;9.46;99.84
60817;BME280;51921;51.518;-3.188;2022-11-20T03:20:58;100381.12;;;8.56;100.00
60817;BME280;51921;51.518;-3.188;2022-11-20T03:23:23;100379.34;;;8.27;100.00
60817;BME280;51921;51.518;-3.188;2022-11-20T03:25:48;100368.98;;;7.98;100.00
60817;BME280;51921;51.518;-3.188;2022-11-20T03:28:14;100365.52;;;8.90;98.78
60817;BME280;51921;51.518;-3.188;2022-11-20T03:30:39;100363.76;;;9.70;95.03
60817;BME280;51921;51.518;-3.188;2022-11-20T03:33:05;100362.55;;;9.86;92.07
60817;BME280;51921;51.518;-3.188;2022-11-20T03:35:30;100360.49;;;9.89;90.12
60817;BME280;51921;51.518;-3.188;2022-11-20T03:37:57;100364.30;;;9.64;88.71
60817;BME280;51921;51.518;-3.188;2022-11-20T03:40:21;100363.35;;;9.75;87.10
60817;BME280;51921;51.518;-3.188;2022-11-20T03:42:47;100361.28;;;9.59;89.86
60817;BME280;51921;51.518;-3.188;2022-11-20T03:45:13;100356.98;;;10.82;83.00
60817;BME280;51921;51.518;-3.188;2022-11-20T03:47:38;100355.04;;;9.21;86.48
60817;BME280;51921;51.518;-3.188;2022-11-20T03:50:04;100360.57;;;9.32;89.08
60817;BME280;51921;51.518;-3.188;2022-11-20T03:52:30;100362.28;;;9.25;86.70
60817;BME280;51921;51.518;-3.188;2022-11-20T03:54:54;100359.44;;;8.49;89.73
60817;BME280;51921;51.518;-3.188;2022-11-20T03:57:20;100363.67;;;7.43;92.85
60817;BME280;51921;51.518;-3.188;2022-11-20T03:59:45;100361.79;;;7.08;94.51
60817;BME280;51921;51.518;-3.188;2022-11-20T04:02:11;100365.89;;;7.93;96.05
60817;BME280;51921;51.518;-3.188;2022-11-20T04:04:36;100370.02;;;7.03;98.51
60817;BME280;51921;51.518;-3.188;2022-11-20T04:07:02;100377.00;;;6.13;100.00
60817;BME280;51921;51.518;-3.188;2022-11-20T04:09:27;100383.69;;;6.82;100.00
60817;BME280;51921;51.518;-3.188;2022-11-20T04:11:53;100384.16;;;7.26;100.00
60817;BME280;51921;51.518;-3.188;2022-11-20T04:14:19;100383.97;;;7.59;100.00
60817;BME280;51921;51.518;-3.188;2022-11-20T04:16:44;100382.95;;;7.19;100.00
60817;BME280;51921;51.518;-3.188;2022-11-20T04:19:12;100380.56;;;7.53;99.10
60817;BME280;51921;51.518;-3.188;2022-11-20T04:21:35;100376.55;;;8.22;94.70
60817;BME280;51921;51.518;-3.188;2022-11-20T04:24:01;100376.63;;;7.96;93.41
60817;BME280;51921;51.518;-3.188;2022-11-20T04:26:27;100381.05;;;7.97;91.92
60817;BME280;51921;51.518;-3.188;2022-11-20T04:28:52;100386.80;;;7.86;92.79
60817;BME280;51921;51.518;-3.188;2022-11-20T04:31:24;100393.53;;;7.07;94.61
60817;BME280;51921;51.518;-3.188;2022-11-20T04:33:43;100399.65;;;7.91;91.59
60817;BME280;51921;51.518;-3.188;2022-11-20T04:36:12;100395.61;;;7.66;92.69
60817;BME280;51921;51.518;-3.188;2022-11-20T04:38:34;100396.74;;;7.59;91.39
60817;BME280;51921;51.518;-3.188;2022-11-20T04:41:00;100396.23;;;7.55;91.95
60817;BME280;51921;51.518;-3.188;2022-11-20T04:43:25;100391.15;;;6.21;95.42
60817;BME280;51921;51.518;-3.188;2022-11-20T04:45:50;100400.84;;;7.20;95.00
60817;BME280;51921;51.518;-3.188;2022-11-20T04:48:15;100404.86;;;6.87;95.79
60817;BME280;51921;51.518;-3.188;2022-11-20T04:50:40;100405.55;;;6.42;96.66
60817;BME280;51921;51.518;-3.188;2022-11-20T04:53:06;100409.91;;;5.85;100.00
60817;BME280;51921;51.518;-3.188;2022-11-20T04:55:31;100409.23;;;6.10;100.00
60817;BME280;51921;51.518;-3.188;2022-11-20T04:57:56;100412.64;;;6.86;97.28
60817;BME280;51921;51.518;-3.188;2022-11-20T05:00:22;100411.17;;;6.64;96.47
60817;BME280;51921;51.518;-3.188;2022-11-20T05:02:47;100409.60;;;6.51;96.87
60817;BME280;51921;51.518;-3.188;2022-11-20T05:05:13;100406.14;;;6.21;99.04
60817;BME280;51921;51.518;-3.188;2022-11-20T05:07:39;100415.55;;;7.17;96.62
60817;BME280;51921;51.518;-3.188;2022-11-20T05:10:05;100416.89;;;7.10;96.22
60817;BME280;51921;51.518;-3.188;2022-11-20T05:12:29;100420.62;;;7.21;93.25
60817;BME280;51921;51.518;-3.188;2022-11-20T05:14:55;100421.12;;;6.39;99.49
60817;BME280;51921;51.518;-3.188;2022-11-20T05:17:20;100426.67;;;6.04;100.00
60817;BME280;51921;51.518;-3.188;2022-11-20T05:19:46;100434.89;;;6.22;99.61
60817;BME280;51921;51.518;-3.188;2022-11-20T05:22:11;100434.96;;;6.08;99.23
60817;BME280;51921;51.518;-3.188;2022-11-20T05:24:37;100437.03;;;5.93;98.01
60817;BME280;51921;51.518;-3.188;2022-11-20T05:27:02;100447.86;;;6.15;99.29
60817;BME280;51921;51.518;-3.188;2022-11-20T05:29:28;100447.96;;;6.64;96.22
60817;BME280;51921;51.518;-3.188;2022-11-20T05:31:53;100450.52;;;5.92;100.00
60817;BME280;51921;51.518;-3.188;2022-11-20T05:34:18;100454.66;;;5.32;100.00
60817;BME280;51921;51.518;-3.188;2022-11-20T05:36:44;100458.50;;;4.64;100.00
60817;BME280;51921;51.518;-3.188;2022-11-20T05:39:09;100462.77;;;4.35;100.00
60817;BME280;51921;51.518;-3.188;2022-11-20T05:41:35;100463.25;;;4.73;100.00
60817;BME280;51921;51.518;-3.188;2022-11-20T05:44:00;100467.66;;;4.98;100.00
60817;BME280;51921;51.518;-3.188;2022-11-20T05:46:26;100470.19;;;4.82;100.00
60817;BME280;51921;51.518;-3.188;2022-11-20T05:48:51;100466.26;;;5.31;100.00
60817;BME280;51921;51.518;-3.188;2022-11-20T05:51:19;100463.93;;;5.51;100.00
60817;BME280;51921;51.518;-3.188;2022-11-20T05:53:43;100460.74;;;5.15;100.00
60817;BME280;51921;51.518;-3.188;2022-11-20T05:56:11;100456.37;;;6.15;100.00
60817;BME280;51921;51.518;-3.188;2022-11-20T05:58:33;100453.74;;;6.39;96.58
60817;BME280;51921;51.518;-3.188;2022-11-20T06:01:05;100452.57;;;6.75;95.30
60817;BME280;51921;51.518;-3.188;2022-11-20T06:03:24;100452.68;;;7.35;91.98
60817;BME280;51921;51.518;-3.188;2022-11-20T06:05:50;100452.24;;;6.97;90.00
60817;BME280;51921;51.518;-3.188;2022-11-20T06:08:15;100452.80;;;7.73;87.35
60817;BME280;51921;51.518;-3.188;2022-11-20T06:10:40;100453.09;;;7.13;88.20
60817;BME280;51921;51.518;-3.188;2022-11-20T06:13:05;100447.60;;;6.48;89.55
60817;BME280;51921;51.518;-3.188;2022-11-20T06:15:31;100447.45;;;7.28;87.48
60817;BME280;51921;51.518;-3.188;2022-11-20T06:17:56;100444.14;;;7.35;86.81
60817;BME280;51921;51.518;-3.188;2022-11-20T06:20:22;100441.87;;;8.62;81.12
60817;BME280;51921;51.518;-3.188;2022-11-20T06:22:47;100443.77;;;7.15;85.91
60817;BME280;51921;51.518;-3.188;2022-11-20T06:25:13;100444.64;;;7.95;83.50
60817;BME280;51921;51.518;-3.188;2022-11-20T06:27:38;100434.46;;;8.11;83.13
60817;BME280;51921;51.518;-3.188;2022-11-20T06:30:05;100432.67;;;7.39;83.62
60817;BME280;51921;51.518;-3.188;2022-11-20T06:32:29;100432.57;;;8.52;81.20
60817;BME280;51921;51.518;-3.188;2022-11-20T06:34:54;100434.56;;;8.16;81.42
60817;BME280;51921;51.518;-3.188;2022-11-20T06:37:20;100434.08;;;8.85;78.50
60817;BME280;51921;51.518;-3.188;2022-11-20T06:39:45;100433.56;;;8.34;80.57
60817;BME280;51921;51.518;-3.188;2022-11-20T06:42:11;100430.08;;;8.60;79.18
60817;BME280;51921;51.518;-3.188;2022-11-20T06:44:36;100430.35;;;6.63;84.74
60817;BME280;51921;51.518;-3.188;2022-11-20T06:47:02;100432.76;;;7.09;86.01
60817;BME280;51921;51.518;-3.188;2022-11-20T06:49:27;100439.80;;;6.14;89.19
60817;BME280;51921;51.518;-3.188;2022-11-20T06:51:53;100437.75;;;6.58;88.72
60817;BME280;51921;51.518;-3.188;2022-11-20T06:54:18;100437.25;;;7.79;84.27
60817;BME280;51921;51.518;-3.188;2022-11-20T06:56:46;100438.63;;;6.34;88.95
60817;BME280;51921;51.518;-3.188;2022-11-20T06:59:09;100443.55;;;6.82;87.90
60817;BME280;51921;51.518;-3.188;2022-11-20T07:01:34;100443.18;;;6.09;88.20
60817;BME280;51921;51.518;-3.188;2022-11-20T07:04:00;100454.08;;;6.40;88.28
60817;BME280;51921;51.518;-3.188;2022-11-20T07:06:25;100458.35;;;6.68;86.33
60817;BME280;51921;51.518;-3.188;2022-11-20T07:08:51;100458.47;;;7.44;84.15
60817;BME280;51921;51.518;-3.188;2022-11-20T07:11:16;100460.71;;;6.60;86.33
60817;BME280;51921;51.518;-3.188;2022-11-20T07:13:41;100460.67;;;6.34;87.96
60817;BME280;51921;51.518;-3.188;2022-11-20T07:16:08;100467.84;;;5.81;92.31
60817;BME280;51921;51.518;-3.188;2022-11-20T07:18:32;100460.90;;;7.67;84.19
60817;BME280;51921;51.518;-3.188;2022-11-20T07:21:00;100456.23;;;4.80;96.19
60817;BME280;51921;51.518;-3.188;2022-11-20T07:23:23;100455.81;;;5.97;92.28
60817;BME280;51921;51.518;-3.188;2022-11-20T07:25:48;100453.67;;;6.59;92.94
60817;BME280;51921;51.518;-3.188;2022-11-20T07:28:13;100448.01;;;6.43;91.12
60817;BME280;51921;51.518;-3.188;2022-11-20T07:30:39;100453.37;;;6.13;93.58
60817;BME280;51921;51.518;-3.188;2022-11-20T07:33:04;100446.68;;;6.35;92.53
60817;BME280;51921;51.518;-3.188;2022-11-20T07:35:29;100451.39;;;6.43;89.96
60817;BME280;51921;51.518;-3.188;2022-11-20T07:37:55;100455.68;;;6.60;91.36
60817;BME280;51921;51.518;-3.188;2022-11-20T07:40:20;100462.27;;;6.69;92.99
60817;BME280;51921;51.518;-3.188;2022-11-20T07:42:48;100471.78;;;5.48;96.70
60817;BME280;51921;51.518;-3.188;2022-11-20T07:45:11;100475.84;;;5.49;98.68
60817;BME280;51921;51.518;-3.188;2022-11-20T07:47:37;100480.76;;;5.05;100.00
60817;BME280;51921;51.518;-3.188;2022-11-20T07:50:03;100493.30;;;4.33;100.00
60817;BME280;51921;51.518;-3.188;2022-11-20T07:52:29;100497.64;;;5.51;100.00
60817;BME280;51921;51.518;-3.188;2022-11-20T07:54:53;100498.46;;;5.84;95.38
60817;BME280;51921;51.518;-3.188;2022-11-20T07:57:19;100497.50;;;6.17;92.33
60817;BME280;51921;51.518;-3.188;2022-11-20T07:59:44;100497.92;;;6.48;92.27
60817;BME280;51921;51.518;-3.188;2022-11-20T08:02:10;100500.52;;;5.61;91.49
60817;BME280;51921;51.518;-3.188;2022-11-20T08:04:35;100500.79;;;6.65;89.05
60817;BME280;51921;51.518;-3.188;2022-11-20T08:07:00;100505.26;;;5.97;88.63
60817;BME280;51921;51.518;-3.188;2022-11-20T08:09:30;100509.94;;;6.67;87.29
60817;BME280;51921;51.518;-3.188;2022-11-20T08:11:51;100516.03;;;6.31;86.18
60817;BME280;51921;51.518;-3.188;2022-11-20T08:14:17;100518.51;;;6.50;85.33
60817;BME280;51921;51.518;-3.188;2022-11-20T08:16:43;100518.78;;;6.94;85.53
60817;BME280;51921;51.518;-3.188;2022-11-20T08:19:07;100522.04;;;7.16;84.53
60817;BME280;51921;51.518;-3.188;2022-11-20T08:21:33;100527.02;;;7.72;81.42
60817;BME280;51921;51.518;-3.188;2022-11-20T08:23:58;100534.15;;;7.07;82.04
60817;BME280;51921;51.518;-3.188;2022-11-20T08:26:24;100535.49;;;7.59;81.60
60817;BME280;51921;51.518;-3.188;2022-11-20T08:28:52;100534.17;;;7.81;81.26
60817;BME280;51921;51.518;-3.188;2022-11-20T08:31:14;100535.19;;;7.44;81.51
60817;BME280;51921;51.518;-3.188;2022-11-20T08:33:40;100534.79;;;7.73;80.79
60817;BME280;51921;51.518;-3.188;2022-11-20T08:36:06;100536.43;;;7.62;81.59
60817;BME280;51921;51.518;-3.188;2022-11-20T08:38:31;100533.79;;;7.88;81.14
60817;BME280;51921;51.518;-3.188;2022-11-20T08:40:57;100531.57;;;8.71;80.32
60817;BME280;51921;51.518;-3.188;2022-11-20T08:43:21;100537.35;;;8.19;79.56
60817;BME280;51921;51.518;-3.188;2022-11-20T08:45:47;100539.20;;;7.89;79.12
60817;BME280;51921;51.518;-3.188;2022-11-20T08:48:12;100540.45;;;7.99;79.29
60817;BME280;51921;51.518;-3.188;2022-11-20T08:50:38;100539.86;;;7.92;81.32
60817;BME280;51921;51.518;-3.188;2022-11-20T08:53:04;100536.65;;;8.00;82.64
60817;BME280;51921;51.518;-3.188;2022-11-20T08:55:29;100537.30;;;7.78;82.11
60817;BME280;51921;51.518;-3.188;2022-11-20T08:57:54;100537.19;;;6.90;86.64
60817;BME280;51921;51.518;-3.188;2022-11-20T09:00:20;100538.73;;;7.42;85.42
60817;BME280;51921;51.518;-3.188;2022-11-20T09:02:45;100533.40;;;8.48;83.40
60817;BME280;51921;51.518;-3.188;2022-11-20T09:05:11;100531.13;;;7.31;86.46
60817;BME280;51921;51.518;-3.188;2022-11-20T09:07:37;100534.74;;;8.26;82.20
60817;BME280;51921;51.518;-3.188;2022-11-20T09:10:02;100526.70;;;7.98;82.69
60817;BME280;51921;51.518;-3.188;2022-11-20T09:12:27;100521.55;;;7.82;82.11
60817;BME280;51921;51.518;-3.188;2022-11-20T09:14:53;100523.13;;;7.51;82.50
60817;BME280;51921;51.518;-3.188;2022-11-20T09:17:18;100532.82;;;8.08;81.67
60817;BME280;51921;51.518;-3.188;2022-11-20T09:19:44;100535.72;;;8.57;80.32
60817;BME280;51921;51.518;-3.188;2022-11-20T09:22:09;100541.25;;;8.54;80.06
60817;BME280;51921;51.518;-3.188;2022-11-20T09:24:34;100543.28;;;8.77;81.59
60817;BME280;51921;51.518;-3.188;2022-11-20T09:27:03;100544.39;;;8.82;79.42
60817;BME280;51921;51.518;-3.188;2022-11-20T09:29:25;100539.67;;;8.62;79.19
60817;BME280;51921;51.518;-3.188;2022-11-20T09:31:51;100542.03;;;8.42;80.92
60817;BME280;51921;51.518;-3.188;2022-11-20T09:34:17;100544.32;;;7.72;82.37
60817;BME280;51921;51.518;-3.188;2022-11-20T09:36:42;100544.12;;;8.68;80.93
60817;BME280;51921;51.518;-3.188;2022-11-20T09:39:08;100543.86;;;8.72;80.62
60817;BME280;51921;51.518;-3.188;2022-11-20T09:41:46;100541.86;;;8.60;81.77
60817;BME280;51921;51.518;-3.188;2022-11-20T09:44:04;100537.08;;;8.18;81.99
60817;BME280;51921;51.518;-3.188;2022-11-20T09:46:29;100530.29;;;8.71;79.70
60817;BME280;51921;51.518;-3.188;2022-11-20T09:48:58;100530.44;;;8.38;79.42
60817;BME280;51921;51.518;-3.188;2022-11-20T09:51:25;100529.82;;;8.48;81.52
60817;BME280;51921;51.518;-3.188;2022-11-20T09:53:50;100529.85;;;7.88;84.21
60817;BME280;51921;51.518;-3.188;2022-11-20T09:56:09;100527.91;;;8.45;83.37
60817;BME280;51921;51.518;-3.188;2022-11-20T09:58:35;100524.89;;;8.14;83.48
60817;BME280;51921;51.518;-3.188;2022-11-20T10:01:03;100520.94;;;8.83;80.88
60817;BME280;51921;51.518;-3.188;2022-11-20T10:03:31;100526.60;;;8.81;82.90
60817;BME280;51921;51.518;-3.188;2022-11-20T10:05:50;100531.67;;;8.73;82.56
60817;BME280;51921;51.518;-3.188;2022-11-20T10:08:17;100535.05;;;8.01;84.39
60817;BME280;51921;51.518;-3.188;2022-11-20T10:10:42;100532.50;;;7.41;88.26
60817;BME280;51921;51.518;-3.188;2022-11-20T10:13:14;100533.59;;;6.60;93.28
60817;BME280;51921;51.518;-3.188;2022-11-20T10:15:35;100533.75;;;7.91;89.48
60817;BME280;51921;51.518;-3.188;2022-11-20T10:18:04;100533.63;;;8.64;85.84
60817;BME280;51921;51.518;-3.188;2022-11-20T10:20:26;100527.25;;;6.49;94.68
60817;BME280;51921;51.518;-3.188;2022-11-20T10:22:58;100525.38;;;7.56;90.20
60817;BME280;51921;51.518;-3.188;2022-11-20T10:25:14;100524.15;;;7.48;89.27
60817;BME280;51921;51.518;-3.188;2022-11-20T10:27:47;100526.76;;;7.20;92.40
60817;BME280;51921;51.518;-3.188;2022-11-20T10:30:07;100522.68;;;7.34;93.23
60817;BME280;51921;51.518;-3.188;2022-11-20T10:32:34;100526.15;;;6.05;95.07
60817;BME280;51921;51.518;-3.188;2022-11-20T10:34:57;100531.37;;;8.39;89.22
60817;BME280;51921;51.518;-3.188;2022-11-20T10:37:21;100532.15;;;6.81;92.65
60817;BME280;51921;51.518;-3.188;2022-11-20T10:39:49;100530.75;;;7.39;94.47
60817;BME280;51921;51.518;-3.188;2022-11-20T10:42:11;100523.62;;;7.57;94.20
60817;BME280;51921;51.518;-3.188;2022-11-20T10:44:34;100525.47;;;7.70;94.15
60817;BME280;51921;51.518;-3.188;2022-11-20T10:46:59;100523.19;;;8.01;92.92
60817;BME280;51921;51.518;-3.188;2022-11-20T10:49:25;100520.53;;;6.68;95.59
60817;BME280;51921;51.518;-3.188;2022-11-20T10:51:58;100515.86;;;6.96;97.33
60817;BME280;51921;51.518;-3.188;2022-11-20T10:54:21;100510.50;;;8.06;91.18
60817;BME280;51921;51.518;-3.188;2022-11-20T10:56:44;100508.74;;;8.14;92.88
60817;BME280;51921;51.518;-3.188;2022-11-20T10:59:24;100512.48;;;7.31;92.82
60817;BME280;51921;51.518;-3.188;2022-11-20T11:01:39;100517.59;;;7.63;93.79
60817;BME280;51921;51.518;-3.188;2022-11-20T11:03:58;100516.05;;;7.56;94.04
60817;BME280;51921;51.518;-3.188;2022-11-20T11:06:32;100511.27;;;8.05;91.44
60817;BME280;51921;51.518;-3.188;2022-11-20T11:08:49;100508.72;;;7.71;92.74
60817;BME280;51921;51.518;-3.188;2022-11-20T11:11:21;100511.54;;;7.73;91.30
60817;BME280;51921;51.518;-3.188;2022-11-20T11:13:39;100510.48;;;8.12;93.66
60817;BME280;51921;51.518;-3.188;2022-11-20T11:16:04;100502.98;;;7.74;94.76
60817;BME280;51921;51.518;-3.188;2022-11-20T11:18:32;100499.69;;;7.18;95.94
60817;BME280;51921;51.518;-3.188;2022-11-20T11:20:56;100502.56;;;7.84;93.05
60817;BME280;51921;51.518;-3.188;2022-11-20T11:23:31;100493.17;;;8.23;94.06
60817;BME280;51921;51.518;-3.188;2022-11-20T11:25:56;100493.97;;;7.82;92.04
60817;BME280;51921;51.518;-3.188;2022-11-20T11:28:20;100503.78;;;7.87;92.40
60817;BME280;51921;51.518;-3.188;2022-11-20T11:30:43;100491.43;;;7.82;94.00
60817;BME280;51921;51.518;-3.188;2022-11-20T11:33:06;100489.33;;;8.00;95.55
60817;BME280;51921;51.518;-3.188;2022-11-20T11:35:29;100480.82;;;10.18;85.91
60817;BME280;51921;51.518;-3.188;2022-11-20T11:40:21;100473.34;;;8.13;92.27
60817;BME280;51921;51.518;-3.188;2022-11-20T11:42:52;100485.37;;;8.56;90.91
60817;BME280;51921;51.518;-3.188;2022-11-20T11:45:15;100538.95;;;7.87;94.26
60817;BME280;51921;51.518;-3.188;2022-11-20T11:47:42;100532.11;;;6.03;100.00
60817;BME280;51921;51.518;-3.188;2022-11-20T11:52:28;100544.35;;;5.37;100.00
60817;BME280;51921;51.518;-3.188;2022-11-20T11:54:55;100547.08;;;5.51;100.00
60817;BME280;51921;51.518;-3.188;2022-11-20T11:57:24;100539.76;;;5.31;100.00
60817;BME280;51921;51.518;-3.188;2022-11-20T11:59:54;100513.84;;;5.51;100.00
60817;BME280;51921;51.518;-3.188;2022-11-20T12:02:19;100496.20;;;5.45;100.00
60817;BME280;51921;51.518;-3.188;2022-11-20T12:04:42;100500.90;;;5.49;100.00
60817;BME280;51921;51.518;-3.188;2022-11-20T12:07:03;100504.57;;;6.15;100.00
60817;BME280;51921;51.518;-3.188;2022-11-20T12:09:33;100501.12;;;5.61;100.00
60817;BME280;51921;51.518;-3.188;2022-11-20T12:11:55;100514.99;;;5.79;100.00
60817;BME280;51921;51.518;-3.188;2022-11-20T12:14:20;100507.10;;;6.96;100.00
60817;BME280;51921;51.518;-3.188;2022-11-20T12:16:42;100502.15;;;6.80;100.00
60817;BME280;51921;51.518;-3.188;2022-11-20T12:19:10;100503.01;;;7.05;100.00
60817;BME280;51921;51.518;-3.188;2022-11-20T12:21:42;100492.50;;;6.89;100.00
60817;BME280;51921;51.518;-3.188;2022-11-20T12:24:23;100490.70;;;7.02;100.00
60817;BME280;51921;51.518;-3.188;2022-11-20T12:26:36;100481.05;;;7.30;100.00
60817;BME280;51921;51.518;-3.188;2022-11-20T12:29:00;100481.13;;;6.72;100.00
60817;BME280;51921;51.518;-3.188;2022-11-20T12:31:29;100476.27;;;7.34;100.00
60817;BME280;51921;51.518;-3.188;2022-11-20T12:33:53;100471.08;;;6.55;100.00
60817;BME280;51921;51.518;-3.188;2022-11-20T12:36:15;100469.32;;;6.65;100.00
60817;BME280;51921;51.518;-3.188;2022-11-20T12:38:42;100467.91;;;6.73;100.00
60817;BME280;51921;51.518;-3.188;2022-11-20T12:41:04;100473.12;;;6.41;100.00